Terminal Aerodrome Forecast
Issued by NWS Grand Forks, ND

Home | Current Version | Previous Version | Text Only | Print | Product List | Glossary Off
Versions: 1 2 3 4 5 6 7 8 9 10 11 12 13 14 15 16 17 18 19 20

000
FTUS43 KFGF 291400 AAA
TAFGFK
TAF AMD
KGFK 291425Z 2914/3012 02008KT P6SM BKN005
      TEMPO 2915/2918 BKN015
     FM292000 06008KT P6SM BKN025
     FM292300 11010KT P6SM SKC=

USA.gov is the U.S. government's official web portal to all federal, state and local government web resources and services.